sensor_id;sensor_type;location;lat;lon;timestamp;P1;durP1;ratioP1;P2;durP2;ratioP2
33864;SDS011;20159;51.072;13.526;2022-09-09T00:03:43;1.00;;;0.70;;
33864;SDS011;20159;51.072;13.526;2022-09-09T00:06:35;2.85;;;1.20;;
33864;SDS011;20159;51.072;13.526;2022-09-09T00:09:16;1.92;;;1.00;;
33864;SDS011;20159;51.072;13.526;2022-09-09T00:11:54;11.80;;;1.05;;
33864;SDS011;20159;51.072;13.526;2022-09-09T00:14:40;3.22;;;1.13;;
33864;SDS011;20159;51.072;13.526;2022-09-09T00:17:30;1.17;;;1.00;;
33864;SDS011;20159;51.072;13.526;2022-09-09T00:20:34;2.15;;;1.20;;
33864;SDS011;20159;51.072;13.526;2022-09-09T00:23:20;2.55;;;1.00;;
33864;SDS011;20159;51.072;13.526;2022-09-09T00:28:20;3.20;;;0.85;;
33864;SDS011;20159;51.072;13.526;2022-09-09T00:30:50;1.30;;;0.85;;
33864;SDS011;20159;51.072;13.526;2022-09-09T00:33:17;1.23;;;0.90;;
33864;SDS011;20159;51.072;13.526;2022-09-09T00:35:48;4.47;;;1.27;;
33864;SDS011;20159;51.072;13.526;2022-09-09T00:38:20;1.60;;;1.10;;
33864;SDS011;20159;51.072;13.526;2022-09-09T00:40:58;3.35;;;1.00;;
33864;SDS011;20159;51.072;13.526;2022-09-09T00:43:28;1.85;;;0.80;;
33864;SDS011;20159;51.072;13.526;2022-09-09T00:54:49;1.15;;;0.90;;
33864;SDS011;20159;51.072;13.526;2022-09-09T00:57:30;2.80;;;0.90;;
33864;SDS011;20159;51.072;13.526;2022-09-09T01:02:59;1.27;;;0.85;;
33864;SDS011;20159;51.072;13.526;2022-09-09T01:08:48;1.23;;;0.90;;
33864;SDS011;20159;51.072;13.526;2022-09-09T01:11:26;1.77;;;0.93;;
33864;SDS011;20159;51.072;13.526;2022-09-09T01:14:22;1.75;;;0.90;;
33864;SDS011;20159;51.072;13.526;2022-09-09T01:17:10;1.88;;;0.95;;
33864;SDS011;20159;51.072;13.526;2022-09-09T01:27:35;1.85;;;0.80;;
33864;SDS011;20159;51.072;13.526;2022-09-09T01:30:04;1.50;;;0.90;;
33864;SDS011;20159;51.072;13.526;2022-09-09T01:32:39;2.58;;;0.90;;
33864;SDS011;20159;51.072;13.526;2022-09-09T01:35:11;3.10;;;1.13;;
33864;SDS011;20159;51.072;13.526;2022-09-09T01:37:44;3.75;;;1.00;;
33864;SDS011;20159;51.072;13.526;2022-09-09T01:40:10;1.90;;;1.02;;
33864;SDS011;20159;51.072;13.526;2022-09-09T01:42:35;2.80;;;0.95;;
33864;SDS011;20159;51.072;13.526;2022-09-09T01:45:01;2.60;;;1.15;;
33864;SDS011;20159;51.072;13.526;2022-09-09T01:47:28;3.35;;;1.17;;
33864;SDS011;20159;51.072;13.526;2022-09-09T01:49:54;1.67;;;1.00;;
33864;SDS011;20159;51.072;13.526;2022-09-09T01:52:19;1.98;;;0.80;;
33864;SDS011;20159;51.072;13.526;2022-09-09T01:54:45;1.10;;;0.82;;
33864;SDS011;20159;51.072;13.526;2022-09-09T01:57:22;1.13;;;0.82;;
33864;SDS011;20159;51.072;13.526;2022-09-09T02:02:32;2.28;;;0.88;;
33864;SDS011;20159;51.072;13.526;2022-09-09T02:10:32;2.38;;;1.10;;
33864;SDS011;20159;51.072;13.526;2022-09-09T02:13:18;1.88;;;0.90;;
33864;SDS011;20159;51.072;13.526;2022-09-09T02:15:52;2.88;;;1.20;;
33864;SDS011;20159;51.072;13.526;2022-09-09T02:18:30;1.48;;;0.95;;
33864;SDS011;20159;51.072;13.526;2022-09-09T02:21:20;2.42;;;1.10;;
33864;SDS011;20159;51.072;13.526;2022-09-09T02:23:48;1.67;;;0.73;;
33864;SDS011;20159;51.072;13.526;2022-09-09T02:26:17;2.30;;;0.77;;
33864;SDS011;20159;51.072;13.526;2022-09-09T02:28:46;3.55;;;0.95;;
33864;SDS011;20159;51.072;13.526;2022-09-09T02:31:18;3.25;;;0.93;;
33864;SDS011;20159;51.072;13.526;2022-09-09T02:33:48;1.30;;;0.85;;
33864;SDS011;20159;51.072;13.526;2022-09-09T02:36:19;1.50;;;0.70;;
33864;SDS011;20159;51.072;13.526;2022-09-09T02:38:47;1.85;;;0.88;;
33864;SDS011;20159;51.072;13.526;2022-09-09T02:41:15;3.50;;;0.90;;
33864;SDS011;20159;51.072;13.526;2022-09-09T02:43:43;2.35;;;0.80;;
33864;SDS011;20159;51.072;13.526;2022-09-09T02:46:21;1.67;;;0.90;;
33864;SDS011;20159;51.072;13.526;2022-09-09T02:51:32;2.25;;;0.98;;
33864;SDS011;20159;51.072;13.526;2022-09-09T02:54:23;2.10;;;0.90;;
33864;SDS011;20159;51.072;13.526;2022-09-09T02:56:55;2.72;;;1.02;;
33864;SDS011;20159;51.072;13.526;2022-09-09T02:59:27;1.60;;;0.90;;
33864;SDS011;20159;51.072;13.526;2022-09-09T03:01:55;2.03;;;0.75;;
33864;SDS011;20159;51.072;13.526;2022-09-09T03:04:21;1.95;;;0.95;;
33864;SDS011;20159;51.072;13.526;2022-09-09T03:06:46;5.00;;;0.98;;
33864;SDS011;20159;51.072;13.526;2022-09-09T03:09:12;4.05;;;1.08;;
33864;SDS011;20159;51.072;13.526;2022-09-09T03:11:38;2.30;;;0.90;;
33864;SDS011;20159;51.072;13.526;2022-09-09T03:14:03;2.55;;;0.88;;
33864;SDS011;20159;51.072;13.526;2022-09-09T03:16:29;1.73;;;0.85;;
33864;SDS011;20159;51.072;13.526;2022-09-09T03:18:55;1.08;;;0.68;;
33864;SDS011;20159;51.072;13.526;2022-09-09T03:21:20;1.92;;;0.73;;
33864;SDS011;20159;51.072;13.526;2022-09-09T03:23:46;2.05;;;0.70;;
33864;SDS011;20159;51.072;13.526;2022-09-09T03:26:12;1.73;;;0.80;;
33864;SDS011;20159;51.072;13.526;2022-09-09T03:28:40;1.38;;;0.70;;
33864;SDS011;20159;51.072;13.526;2022-09-09T03:31:06;3.00;;;0.98;;
33864;SDS011;20159;51.072;13.526;2022-09-09T03:33:38;3.33;;;0.88;;
33864;SDS011;20159;51.072;13.526;2022-09-09T03:36:06;3.15;;;1.15;;
33864;SDS011;20159;51.072;13.526;2022-09-09T03:38:33;2.90;;;1.00;;
33864;SDS011;20159;51.072;13.526;2022-09-09T03:40:59;2.85;;;0.85;;
33864;SDS011;20159;51.072;13.526;2022-09-09T03:43:25;2.50;;;0.90;;
33864;SDS011;20159;51.072;13.526;2022-09-09T03:45:51;1.77;;;0.77;;
33864;SDS011;20159;51.072;13.526;2022-09-09T03:48:17;1.35;;;0.80;;
33864;SDS011;20159;51.072;13.526;2022-09-09T03:50:47;1.50;;;0.77;;
33864;SDS011;20159;51.072;13.526;2022-09-09T03:53:15;4.00;;;1.08;;
33864;SDS011;20159;51.072;13.526;2022-09-09T03:55:44;2.30;;;0.68;;
33864;SDS011;20159;51.072;13.526;2022-09-09T03:58:15;1.42;;;0.63;;
33864;SDS011;20159;51.072;13.526;2022-09-09T04:00:43;1.83;;;0.80;;
33864;SDS011;20159;51.072;13.526;2022-09-09T04:03:17;2.83;;;1.02;;
33864;SDS011;20159;51.072;13.526;2022-09-09T04:05:42;2.35;;;1.00;;
33864;SDS011;20159;51.072;13.526;2022-09-09T04:08:08;1.73;;;0.80;;
33864;SDS011;20159;51.072;13.526;2022-09-09T04:10:34;4.53;;;1.23;;
33864;SDS011;20159;51.072;13.526;2022-09-09T04:13:03;1.27;;;0.80;;
33864;SDS011;20159;51.072;13.526;2022-09-09T04:15:29;1.33;;;0.70;;
33864;SDS011;20159;51.072;13.526;2022-09-09T04:17:55;2.72;;;0.70;;
33864;SDS011;20159;51.072;13.526;2022-09-09T04:20:20;1.27;;;0.75;;
33864;SDS011;20159;51.072;13.526;2022-09-09T04:22:47;2.70;;;0.93;;
33864;SDS011;20159;51.072;13.526;2022-09-09T04:25:12;1.20;;;0.70;;
33864;SDS011;20159;51.072;13.526;2022-09-09T04:27:38;6.13;;;1.08;;
33864;SDS011;20159;51.072;13.526;2022-09-09T04:30:03;1.35;;;0.70;;
33864;SDS011;20159;51.072;13.526;2022-09-09T04:32:31;1.67;;;0.88;;
33864;SDS011;20159;51.072;13.526;2022-09-09T04:34:57;2.75;;;0.70;;
33864;SDS011;20159;51.072;13.526;2022-09-09T04:37:23;2.95;;;0.90;;
33864;SDS011;20159;51.072;13.526;2022-09-09T04:39:49;1.27;;;0.63;;
33864;SDS011;20159;51.072;13.526;2022-09-09T04:42:15;4.03;;;0.70;;
33864;SDS011;20159;51.072;13.526;2022-09-09T04:44:42;2.63;;;0.82;;
33864;SDS011;20159;51.072;13.526;2022-09-09T04:47:08;2.22;;;0.85;;
33864;SDS011;20159;51.072;13.526;2022-09-09T04:49:34;1.67;;;0.95;;
33864;SDS011;20159;51.072;13.526;2022-09-09T04:52:01;3.35;;;1.10;;
33864;SDS011;20159;51.072;13.526;2022-09-09T04:54:28;1.40;;;0.70;;
33864;SDS011;20159;51.072;13.526;2022-09-09T04:56:53;3.58;;;0.90;;
33864;SDS011;20159;51.072;13.526;2022-09-09T04:59:19;2.03;;;0.90;;
33864;SDS011;20159;51.072;13.526;2022-09-09T05:01:45;1.92;;;0.70;;
33864;SDS011;20159;51.072;13.526;2022-09-09T05:04:11;1.55;;;0.90;;
33864;SDS011;20159;51.072;13.526;2022-09-09T05:06:36;2.03;;;0.85;;
33864;SDS011;20159;51.072;13.526;2022-09-09T05:09:02;4.65;;;0.80;;
33864;SDS011;20159;51.072;13.526;2022-09-09T05:11:28;1.13;;;0.60;;
33864;SDS011;20159;51.072;13.526;2022-09-09T05:13:55;1.20;;;0.63;;
33864;SDS011;20159;51.072;13.526;2022-09-09T05:16:22;2.13;;;0.90;;
33864;SDS011;20159;51.072;13.526;2022-09-09T05:18:48;2.78;;;0.80;;
33864;SDS011;20159;51.072;13.526;2022-09-09T05:21:15;3.00;;;1.00;;
33864;SDS011;20159;51.072;13.526;2022-09-09T05:23:42;1.77;;;0.80;;
33864;SDS011;20159;51.072;13.526;2022-09-09T05:26:09;2.20;;;0.75;;
33864;SDS011;20159;51.072;13.526;2022-09-09T05:28:38;2.05;;;0.68;;
33864;SDS011;20159;51.072;13.526;2022-09-09T05:31:05;2.83;;;0.70;;
33864;SDS011;20159;51.072;13.526;2022-09-09T05:33:36;2.83;;;0.90;;
33864;SDS011;20159;51.072;13.526;2022-09-09T05:36:06;2.83;;;0.70;;
33864;SDS011;20159;51.072;13.526;2022-09-09T05:38:33;1.30;;;0.80;;
33864;SDS011;20159;51.072;13.526;2022-09-09T05:41:00;1.35;;;0.60;;
33864;SDS011;20159;51.072;13.526;2022-09-09T05:43:27;5.32;;;0.80;;
33864;SDS011;20159;51.072;13.526;2022-09-09T05:46:27;4.35;;;0.70;;
33864;SDS011;20159;51.072;13.526;2022-09-09T05:48:47;2.30;;;0.68;;
33864;SDS011;20159;51.072;13.526;2022-09-09T05:51:18;1.73;;;0.85;;
33864;SDS011;20159;51.072;13.526;2022-09-09T05:53:46;2.00;;;0.73;;
33864;SDS011;20159;51.072;13.526;2022-09-09T05:56:16;1.00;;;0.57;;
33864;SDS011;20159;51.072;13.526;2022-09-09T05:58:43;1.75;;;0.50;;
33864;SDS011;20159;51.072;13.526;2022-09-09T06:01:16;3.53;;;1.00;;
33864;SDS011;20159;51.072;13.526;2022-09-09T06:03:43;3.97;;;0.63;;
33864;SDS011;20159;51.072;13.526;2022-09-09T06:06:11;2.42;;;0.82;;
33864;SDS011;20159;51.072;13.526;2022-09-09T06:08:39;1.77;;;0.70;;
33864;SDS011;20159;51.072;13.526;2022-09-09T06:11:08;1.67;;;0.50;;
33864;SDS011;20159;51.072;13.526;2022-09-09T06:13:56;1.85;;;0.73;;
33864;SDS011;20159;51.072;13.526;2022-09-09T06:16:22;1.85;;;0.65;;
33864;SDS011;20159;51.072;13.526;2022-09-09T06:18:49;4.03;;;0.80;;
33864;SDS011;20159;51.072;13.526;2022-09-09T06:21:16;2.88;;;0.93;;
33864;SDS011;20159;51.072;13.526;2022-09-09T06:23:46;1.75;;;0.80;;
33864;SDS011;20159;51.072;13.526;2022-09-09T06:28:42;1.05;;;0.55;;
33864;SDS011;20159;51.072;13.526;2022-09-09T06:31:09;2.35;;;0.80;;
33864;SDS011;20159;51.072;13.526;2022-09-09T06:33:36;1.35;;;0.80;;
33864;SDS011;20159;51.072;13.526;2022-09-09T06:38:51;2.35;;;0.60;;
33864;SDS011;20159;51.072;13.526;2022-09-09T06:41:18;2.25;;;0.77;;
33864;SDS011;20159;51.072;13.526;2022-09-09T06:43:45;1.92;;;0.63;;
33864;SDS011;20159;51.072;13.526;2022-09-09T06:46:12;1.52;;;0.50;;
33864;SDS011;20159;51.072;13.526;2022-09-09T06:48:46;2.30;;;0.75;;
33864;SDS011;20159;51.072;13.526;2022-09-09T06:51:16;2.78;;;0.52;;
33864;SDS011;20159;51.072;13.526;2022-09-09T06:53:43;3.70;;;0.50;;
33864;SDS011;20159;51.072;13.526;2022-09-09T06:58:36;2.85;;;0.40;;
33864;SDS011;20159;51.072;13.526;2022-09-09T07:01:04;1.67;;;0.50;;
33864;SDS011;20159;51.072;13.526;2022-09-09T07:03:30;3.00;;;0.40;;
33864;SDS011;20159;51.072;13.526;2022-09-09T07:05:56;1.48;;;0.40;;
33864;SDS011;20159;51.072;13.526;2022-09-09T07:08:21;1.65;;;0.40;;
33864;SDS011;20159;51.072;13.526;2022-09-09T07:10:47;1.50;;;0.38;;
33864;SDS011;20159;51.072;13.526;2022-09-09T07:13:13;2.05;;;0.40;;
33864;SDS011;20159;51.072;13.526;2022-09-09T07:15:40;1.50;;;0.35;;
33864;SDS011;20159;51.072;13.526;2022-09-09T07:18:06;1.58;;;0.40;;
33864;SDS011;20159;51.072;13.526;2022-09-09T07:20:31;0.50;;;0.25;;
33864;SDS011;20159;51.072;13.526;2022-09-09T07:22:57;2.50;;;0.50;;
33864;SDS011;20159;51.072;13.526;2022-09-09T07:25:24;0.95;;;0.40;;
33864;SDS011;20159;51.072;13.526;2022-09-09T07:27:52;1.67;;;0.40;;
33864;SDS011;20159;51.072;13.526;2022-09-09T07:30:18;1.10;;;0.22;;
33864;SDS011;20159;51.072;13.526;2022-09-09T07:32:44;1.08;;;0.50;;
33864;SDS011;20159;51.072;13.526;2022-09-09T07:35:09;0.98;;;0.32;;
33864;SDS011;20159;51.072;13.526;2022-09-09T07:37:36;1.27;;;0.45;;
33864;SDS011;20159;51.072;13.526;2022-09-09T07:40:02;1.35;;;0.35;;
33864;SDS011;20159;51.072;13.526;2022-09-09T07:42:28;0.75;;;0.40;;
33864;SDS011;20159;51.072;13.526;2022-09-09T07:44:54;1.25;;;0.35;;
33864;SDS011;20159;51.072;13.526;2022-09-09T07:47:20;2.08;;;0.40;;
33864;SDS011;20159;51.072;13.526;2022-09-09T07:49:46;3.05;;;0.50;;
33864;SDS011;20159;51.072;13.526;2022-09-09T07:52:11;1.65;;;0.40;;
33864;SDS011;20159;51.072;13.526;2022-09-09T07:54:38;1.30;;;0.50;;
33864;SDS011;20159;51.072;13.526;2022-09-09T07:57:03;1.50;;;0.40;;
33864;SDS011;20159;51.072;13.526;2022-09-09T07:59:29;1.73;;;0.50;;
33864;SDS011;20159;51.072;13.526;2022-09-09T08:01:55;0.43;;;0.20;;
33864;SDS011;20159;51.072;13.526;2022-09-09T08:04:21;2.33;;;0.40;;
33864;SDS011;20159;51.072;13.526;2022-09-09T08:06:52;2.42;;;0.32;;
33864;SDS011;20159;51.072;13.526;2022-09-09T08:09:19;1.50;;;0.32;;
33864;SDS011;20159;51.072;13.526;2022-09-09T08:11:46;1.52;;;0.32;;
33864;SDS011;20159;51.072;13.526;2022-09-09T08:14:12;3.53;;;0.45;;
33864;SDS011;20159;51.072;13.526;2022-09-09T08:16:42;2.03;;;0.40;;
33864;SDS011;20159;51.072;13.526;2022-09-09T08:19:09;1.15;;;0.40;;
33864;SDS011;20159;51.072;13.526;2022-09-09T08:21:35;2.33;;;0.55;;
33864;SDS011;20159;51.072;13.526;2022-09-09T08:24:03;2.20;;;0.50;;
33864;SDS011;20159;51.072;13.526;2022-09-09T08:26:36;1.98;;;0.40;;
33864;SDS011;20159;51.072;13.526;2022-09-09T08:29:07;1.70;;;0.43;;
33864;SDS011;20159;51.072;13.526;2022-09-09T08:31:36;1.35;;;0.35;;
33864;SDS011;20159;51.072;13.526;2022-09-09T08:34:03;2.88;;;0.43;;
33864;SDS011;20159;51.072;13.526;2022-09-09T08:36:31;2.47;;;0.47;;
33864;SDS011;20159;51.072;13.526;2022-09-09T08:39:03;2.33;;;0.40;;
33864;SDS011;20159;51.072;13.526;2022-09-09T08:41:41;1.08;;;0.30;;
33864;SDS011;20159;51.072;13.526;2022-09-09T08:52:08;4.45;;;0.60;;
33864;SDS011;20159;51.072;13.526;2022-09-09T08:54:41;2.35;;;0.50;;
33864;SDS011;20159;51.072;13.526;2022-09-09T08:57:07;0.63;;;0.32;;
33864;SDS011;20159;51.072;13.526;2022-09-09T08:59:44;1.02;;;0.50;;
33864;SDS011;20159;51.072;13.526;2022-09-09T09:02:17;1.35;;;0.40;;
33864;SDS011;20159;51.072;13.526;2022-09-09T09:08:02;1.15;;;0.45;;
33864;SDS011;20159;51.072;13.526;2022-09-09T09:10:49;1.05;;;0.52;;
33864;SDS011;20159;51.072;13.526;2022-09-09T09:13:18;1.40;;;0.40;;
33864;SDS011;20159;51.072;13.526;2022-09-09T09:15:55;1.00;;;0.30;;
33864;SDS011;20159;51.072;13.526;2022-09-09T09:18:25;1.85;;;0.50;;
33864;SDS011;20159;51.072;13.526;2022-09-09T09:23:43;1.65;;;0.30;;
33864;SDS011;20159;51.072;13.526;2022-09-09T09:26:15;1.10;;;0.35;;
33864;SDS011;20159;51.072;13.526;2022-09-09T09:28:41;1.20;;;0.57;;
33864;SDS011;20159;51.072;13.526;2022-09-09T09:31:09;2.50;;;0.40;;
33864;SDS011;20159;51.072;13.526;2022-09-09T09:36:11;2.83;;;0.57;;
33864;SDS011;20159;51.072;13.526;2022-09-09T09:38:40;1.40;;;0.57;;
33864;SDS011;20159;51.072;13.526;2022-09-09T09:41:34;2.13;;;0.40;;
33864;SDS011;20159;51.072;13.526;2022-09-09T09:44:02;2.35;;;0.70;;
33864;SDS011;20159;51.072;13.526;2022-09-09T09:46:29;2.75;;;0.75;;
33864;SDS011;20159;51.072;13.526;2022-09-09T09:49:02;1.48;;;0.32;;
33864;SDS011;20159;51.072;13.526;2022-09-09T09:54:31;1.38;;;0.50;;
33864;SDS011;20159;51.072;13.526;2022-09-09T09:56:53;3.05;;;0.70;;
33864;SDS011;20159;51.072;13.526;2022-09-09T09:59:20;1.17;;;0.47;;
33864;SDS011;20159;51.072;13.526;2022-09-09T10:04:43;1.60;;;0.60;;
33864;SDS011;20159;51.072;13.526;2022-09-09T10:07:17;2.30;;;0.70;;
33864;SDS011;20159;51.072;13.526;2022-09-09T10:09:44;1.50;;;0.50;;
33864;SDS011;20159;51.072;13.526;2022-09-09T10:24:35;3.10;;;0.75;;
33864;SDS011;20159;51.072;13.526;2022-09-09T10:27:29;2.53;;;0.60;;
33864;SDS011;20159;51.072;13.526;2022-09-09T10:35:34;1.33;;;0.50;;
33864;SDS011;20159;51.072;13.526;2022-09-09T10:38:38;1.60;;;0.52;;
33864;SDS011;20159;51.072;13.526;2022-09-09T10:41:14;2.35;;;0.70;;
33864;SDS011;20159;51.072;13.526;2022-09-09T10:47:09;1.52;;;0.75;;
33864;SDS011;20159;51.072;13.526;2022-09-09T10:55:19;2.17;;;0.75;;
33864;SDS011;20159;51.072;13.526;2022-09-09T11:02:45;1.50;;;0.73;;
33864;SDS011;20159;51.072;13.526;2022-09-09T11:05:30;1.67;;;0.47;;
33864;SDS011;20159;51.072;13.526;2022-09-09T11:08:05;2.08;;;0.65;;
33864;SDS011;20159;51.072;13.526;2022-09-09T11:10:44;1.70;;;0.40;;
33864;SDS011;20159;51.072;13.526;2022-09-09T11:13:21;2.30;;;0.43;;
33864;SDS011;20159;51.072;13.526;2022-09-09T11:18:50;1.58;;;0.50;;
33864;SDS011;20159;51.072;13.526;2022-09-09T11:21:22;2.75;;;0.60;;
33864;SDS011;20159;51.072;13.526;2022-09-09T11:23:56;1.02;;;0.35;;
33864;SDS011;20159;51.072;13.526;2022-09-09T11:26:30;1.77;;;0.63;;
33864;SDS011;20159;51.072;13.526;2022-09-09T11:29:06;1.55;;;0.40;;
33864;SDS011;20159;51.072;13.526;2022-09-09T11:34:53;1.17;;;0.50;;
33864;SDS011;20159;51.072;13.526;2022-09-09T11:38:01;1.00;;;0.30;;
33864;SDS011;20159;51.072;13.526;2022-09-09T11:40:36;2.70;;;0.70;;
33864;SDS011;20159;51.072;13.526;2022-09-09T11:43:10;1.92;;;0.32;;
33864;SDS011;20159;51.072;13.526;2022-09-09T11:45:39;0.98;;;0.25;;
33864;SDS011;20159;51.072;13.526;2022-09-09T11:48:20;0.77;;;0.40;;
33864;SDS011;20159;51.072;13.526;2022-09-09T11:50:57;1.63;;;0.47;;
33864;SDS011;20159;51.072;13.526;2022-09-09T11:53:25;1.15;;;0.60;;
33864;SDS011;20159;51.072;13.526;2022-09-09T11:56:34;1.25;;;0.30;;
33864;SDS011;20159;51.072;13.526;2022-09-09T11:59:23;1.33;;;0.40;;
33864;SDS011;20159;51.072;13.526;2022-09-09T12:01:54;1.45;;;0.35;;
33864;SDS011;20159;51.072;13.526;2022-09-09T12:09:48;2.55;;;0.30;;
33864;SDS011;20159;51.072;13.526;2022-09-09T12:12:33;1.13;;;0.30;;
33864;SDS011;20159;51.072;13.526;2022-09-09T12:15:02;2.25;;;0.40;;
33864;SDS011;20159;51.072;13.526;2022-09-09T12:17:36;1.02;;;0.20;;
33864;SDS011;20159;51.072;13.526;2022-09-09T12:20:13;0.73;;;0.32;;
33864;SDS011;20159;51.072;13.526;2022-09-09T12:28:20;1.25;;;0.30;;
33864;SDS011;20159;51.072;13.526;2022-09-09T12:31:08;0.82;;;0.28;;
33864;SDS011;20159;51.072;13.526;2022-09-09T12:33:42;1.77;;;0.38;;
33864;SDS011;20159;51.072;13.526;2022-09-09T12:36:14;2.05;;;0.40;;
33864;SDS011;20159;51.072;13.526;2022-09-09T12:38:44;3.05;;;0.63;;
33864;SDS011;20159;51.072;13.526;2022-09-09T12:41:20;9.30;;;0.30;;
33864;SDS011;20159;51.072;13.526;2022-09-09T12:43:47;0.50;;;0.28;;
33864;SDS011;20159;51.072;13.526;2022-09-09T12:46:18;1.05;;;0.38;;
33864;SDS011;20159;51.072;13.526;2022-09-09T12:48:51;0.90;;;0.40;;
33864;SDS011;20159;51.072;13.526;2022-09-09T12:51:50;1.23;;;0.40;;
33864;SDS011;20159;51.072;13.526;2022-09-09T12:54:12;1.50;;;0.30;;
33864;SDS011;20159;51.072;13.526;2022-09-09T12:56:39;8.10;;;0.60;;
33864;SDS011;20159;51.072;13.526;2022-09-09T12:59:04;0.93;;;0.40;;
33864;SDS011;20159;51.072;13.526;2022-09-09T13:01:31;1.20;;;0.35;;
33864;SDS011;20159;51.072;13.526;2022-09-09T13:04:00;4.22;;;0.85;;
33864;SDS011;20159;51.072;13.526;2022-09-09T13:06:27;2.42;;;0.50;;
33864;SDS011;20159;51.072;13.526;2022-09-09T13:08:54;1.02;;;0.45;;
33864;SDS011;20159;51.072;13.526;2022-09-09T13:13:56;1.00;;;0.30;;
33864;SDS011;20159;51.072;13.526;2022-09-09T13:16:24;1.77;;;0.40;;
33864;SDS011;20159;51.072;13.526;2022-09-09T13:18:55;0.93;;;0.30;;
33864;SDS011;20159;51.072;13.526;2022-09-09T13:21:30;0.90;;;0.30;;
33864;SDS011;20159;51.072;13.526;2022-09-09T13:23:57;0.73;;;0.28;;
33864;SDS011;20159;51.072;13.526;2022-09-09T13:26:28;1.20;;;0.40;;
33864;SDS011;20159;51.072;13.526;2022-09-09T13:28:54;1.23;;;0.45;;
33864;SDS011;20159;51.072;13.526;2022-09-09T13:31:33;1.05;;;0.25;;
33864;SDS011;20159;51.072;13.526;2022-09-09T13:34:10;1.25;;;0.20;;
33864;SDS011;20159;51.072;13.526;2022-09-09T13:36:38;1.20;;;0.40;;
33864;SDS011;20159;51.072;13.526;2022-09-09T13:39:13;2.22;;;0.50;;
33864;SDS011;20159;51.072;13.526;2022-09-09T13:41:42;1.70;;;0.40;;
33864;SDS011;20159;51.072;13.526;2022-09-09T13:44:20;0.88;;;0.32;;
33864;SDS011;20159;51.072;13.526;2022-09-09T13:47:17;1.92;;;0.57;;
33864;SDS011;20159;51.072;13.526;2022-09-09T13:49:44;3.20;;;0.40;;
33864;SDS011;20159;51.072;13.526;2022-09-09T13:52:12;0.70;;;0.30;;
33864;SDS011;20159;51.072;13.526;2022-09-09T13:54:40;1.13;;;0.50;;
33864;SDS011;20159;51.072;13.526;2022-09-09T13:57:16;1.40;;;0.30;;
33864;SDS011;20159;51.072;13.526;2022-09-09T13:59:43;0.85;;;0.32;;
33864;SDS011;20159;51.072;13.526;2022-09-09T14:02:09;0.32;;;0.20;;
33864;SDS011;20159;51.072;13.526;2022-09-09T14:04:35;2.03;;;0.60;;
33864;SDS011;20159;51.072;13.526;2022-09-09T14:07:01;2.00;;;0.73;;
33864;SDS011;20159;51.072;13.526;2022-09-09T14:09:27;1.40;;;0.30;;
33864;SDS011;20159;51.072;13.526;2022-09-09T14:11:53;1.67;;;0.50;;
33864;SDS011;20159;51.072;13.526;2022-09-09T14:14:19;0.88;;;0.35;;
33864;SDS011;20159;51.072;13.526;2022-09-09T14:16:45;0.60;;;0.30;;
33864;SDS011;20159;51.072;13.526;2022-09-09T14:19:11;1.58;;;0.30;;
33864;SDS011;20159;51.072;13.526;2022-09-09T14:21:36;1.67;;;0.30;;
33864;SDS011;20159;51.072;13.526;2022-09-09T14:24:02;0.82;;;0.30;;
33864;SDS011;20159;51.072;13.526;2022-09-09T14:26:27;2.03;;;0.43;;
33864;SDS011;20159;51.072;13.526;2022-09-09T14:28:54;1.10;;;0.32;;
33864;SDS011;20159;51.072;13.526;2022-09-09T14:31:20;2.63;;;0.40;;
33864;SDS011;20159;51.072;13.526;2022-09-09T14:33:46;1.75;;;0.32;;
33864;SDS011;20159;51.072;13.526;2022-09-09T14:36:12;1.13;;;0.32;;
33864;SDS011;20159;51.072;13.526;2022-09-09T14:38:38;1.10;;;0.35;;
33864;SDS011;20159;51.072;13.526;2022-09-09T14:41:09;0.93;;;0.30;;
33864;SDS011;20159;51.072;13.526;2022-09-09T14:43:39;1.10;;;0.28;;
33864;SDS011;20159;51.072;13.526;2022-09-09T14:46:05;0.70;;;0.30;;
33864;SDS011;20159;51.072;13.526;2022-09-09T14:48:32;1.00;;;0.28;;
33864;SDS011;20159;51.072;13.526;2022-09-09T14:51:03;1.48;;;0.38;;
33864;SDS011;20159;51.072;13.526;2022-09-09T14:53:33;0.60;;;0.30;;
33864;SDS011;20159;51.072;13.526;2022-09-09T14:56:03;1.70;;;0.40;;
33864;SDS011;20159;51.072;13.526;2022-09-09T14:58:37;1.30;;;0.30;;
33864;SDS011;20159;51.072;13.526;2022-09-09T15:01:13;2.47;;;0.40;;
33864;SDS011;20159;51.072;13.526;2022-09-09T15:03:41;1.65;;;0.40;;
33864;SDS011;20159;51.072;13.526;2022-09-09T15:06:12;1.42;;;0.25;;
33864;SDS011;20159;51.072;13.526;2022-09-09T15:08:40;1.67;;;0.43;;
33864;SDS011;20159;51.072;13.526;2022-09-09T15:11:07;3.35;;;0.43;;
33864;SDS011;20159;51.072;13.526;2022-09-09T15:13:36;1.73;;;0.50;;
33864;SDS011;20159;51.072;13.526;2022-09-09T15:16:07;1.48;;;0.30;;
33864;SDS011;20159;51.072;13.526;2022-09-09T15:18:37;2.00;;;0.50;;
33864;SDS011;20159;51.072;13.526;2022-09-09T15:21:07;0.88;;;0.22;;
33864;SDS011;20159;51.072;13.526;2022-09-09T15:23:37;1.23;;;0.30;;
33864;SDS011;20159;51.072;13.526;2022-09-09T15:26:03;0.70;;;0.22;;
33864;SDS011;20159;51.072;13.526;2022-09-09T15:28:29;0.88;;;0.32;;
33864;SDS011;20159;51.072;13.526;2022-09-09T15:30:57;1.17;;;0.30;;
33864;SDS011;20159;51.072;13.526;2022-09-09T15:33:29;2.92;;;0.43;;
33864;SDS011;20159;51.072;13.526;2022-09-09T15:35:54;1.40;;;0.20;;
33864;SDS011;20159;51.072;13.526;2022-09-09T15:38:20;1.17;;;0.30;;
33864;SDS011;20159;51.072;13.526;2022-09-09T15:40:52;2.10;;;0.80;;
33864;SDS011;20159;51.072;13.526;2022-09-09T15:43:19;0.95;;;0.40;;
33864;SDS011;20159;51.072;13.526;2022-09-09T15:45:45;1.33;;;0.40;;
33864;SDS011;20159;51.072;13.526;2022-09-09T15:48:13;1.50;;;0.40;;
33864;SDS011;20159;51.072;13.526;2022-09-09T15:50:39;1.08;;;0.40;;
33864;SDS011;20159;51.072;13.526;2022-09-09T15:53:04;1.15;;;0.40;;
33864;SDS011;20159;51.072;13.526;2022-09-09T15:55:31;2.35;;;0.30;;
33864;SDS011;20159;51.072;13.526;2022-09-09T15:57:56;0.90;;;0.30;;
33864;SDS011;20159;51.072;13.526;2022-09-09T16:00:22;1.08;;;0.28;;
33864;SDS011;20159;51.072;13.526;2022-09-09T16:02:49;1.60;;;0.45;;
33864;SDS011;20159;51.072;13.526;2022-09-09T16:05:14;3.15;;;0.73;;
33864;SDS011;20159;51.072;13.526;2022-09-09T16:07:41;1.20;;;0.38;;
33864;SDS011;20159;51.072;13.526;2022-09-09T16:10:07;1.45;;;0.40;;
33864;SDS011;20159;51.072;13.526;2022-09-09T16:12:33;1.30;;;0.40;;
33864;SDS011;20159;51.072;13.526;2022-09-09T16:14:59;3.00;;;0.50;;
33864;SDS011;20159;51.072;13.526;2022-09-09T16:17:25;1.58;;;0.50;;
33864;SDS011;20159;51.072;13.526;2022-09-09T16:19:50;0.57;;;0.30;;
33864;SDS011;20159;51.072;13.526;2022-09-09T16:22:15;1.33;;;0.60;;
33864;SDS011;20159;51.072;13.526;2022-09-09T16:24:42;1.77;;;0.40;;
33864;SDS011;20159;51.072;13.526;2022-09-09T16:27:10;1.75;;;0.50;;
33864;SDS011;20159;51.072;13.526;2022-09-09T16:29:36;1.48;;;0.40;;
33864;SDS011;20159;51.072;13.526;2022-09-09T16:32:01;0.95;;;0.57;;
33864;SDS011;20159;51.072;13.526;2022-09-09T16:34:27;1.23;;;0.43;;
33864;SDS011;20159;51.072;13.526;2022-09-09T16:36:52;2.83;;;0.47;;
33864;SDS011;20159;51.072;13.526;2022-09-09T16:39:18;1.33;;;0.47;;
33864;SDS011;20159;51.072;13.526;2022-09-09T16:41:46;1.15;;;0.50;;
33864;SDS011;20159;51.072;13.526;2022-09-09T16:44:13;1.40;;;0.30;;
33864;SDS011;20159;51.072;13.526;2022-09-09T16:46:42;1.67;;;0.50;;
33864;SDS011;20159;51.072;13.526;2022-09-09T16:49:09;1.58;;;0.50;;
33864;SDS011;20159;51.072;13.526;2022-09-09T16:51:38;1.30;;;0.63;;